Terminal Aerodrome Forecast
Issued by NWS

Home | Current Version | Previous Version | Text Only | Print | Product List | Glossary On
Versions: 1 2 3 4 5 6 7 8 9 10 11 12 13 14 15 16 17 18
071
FTAK31 PAJN 231129
TAFAYA
TAF
PAYA 231129Z 2312/2412 10015G25KT 4SM RA BR OVC015 WS020/12040KT
      TEMPO 2312/2316 6SM -RA BR OVC025
     FM232000 14012G19KT 6SM -RA BR BKN020 OVC030 WS020/16030KT
     FM240200 14010KT 6SM -RA BR BKN025 OVC030
      AMD LTD TO CLD VIS AND WIND=

USA.gov is the U.S. government's official web portal to all federal, state and local government web resources and services.